createdAt,value
2023-04-21T00:04:06.191Z,26.8
2023-04-21T00:09:59.728Z,30.7
2023-04-21T00:15:50.331Z,31.7
2023-04-21T00:21:41.945Z,30.4
2023-04-21T00:27:33.829Z,29.7
2023-04-21T00:33:09.879Z,29.1
2023-04-21T00:39:01.438Z,28.5
2023-04-21T00:44:38.206Z,27.9
2023-04-21T00:50:14.723Z,27.3
2023-04-21T00:55:50.782Z,26.8
2023-04-21T01:01:28.392Z,30.7
2023-04-21T01:07:21.994Z,31.7
2023-04-21T01:12:57.895Z,30.3
2023-04-21T01:18:49.935Z,29.7
2023-04-21T01:24:41.336Z,29.1
2023-04-21T01:30:32.153Z,28.4
2023-04-21T01:36:24.677Z,27.9
2023-04-21T01:41:44.729Z,27.3
2023-04-21T01:47:05.919Z,26.6
2023-04-21T01:52:58.346Z,30.7
2023-04-21T01:58:18.831Z,31.5
2023-04-21T02:04:11.914Z,30.3
2023-04-21T02:10:03.640Z,29.6
2023-04-21T02:16:06.087Z,29.1
2023-04-21T02:22:04.144Z,28.4
2023-04-21T02:33:38.383Z,27.2
2023-04-21T02:39:30.005Z,25.5
2023-04-21T02:45:21.676Z,31.5
2023-04-21T02:51:14.199Z,31.1
2023-04-21T02:57:05.662Z,30.1
2023-04-21T03:02:58.133Z,29.5
2023-04-21T03:08:50.407Z,28.9
2023-04-21T03:14:42.145Z,28.3
2023-04-21T03:20:34.996Z,27.7
2023-04-21T03:26:26.604Z,27.1
2023-04-21T03:32:03.428Z,27.9
2023-04-21T03:37:56.248Z,32.3
2023-04-21T03:43:59.399Z,30.9
2023-04-21T03:49:53.555Z,29.9
2023-04-21T03:55:45.332Z,29.4
2023-04-21T04:01:35.978Z,28.8
2023-04-21T04:07:31.662Z,28.1
2023-04-21T04:12:52.500Z,27.5
2023-04-21T04:18:44.370Z,26.9
2023-04-21T04:24:35.629Z,29.4
2023-04-21T04:30:12.374Z,32.4
2023-04-21T04:36:06.741Z,30.8
2023-04-21T04:41:57.810Z,29.9
2023-04-21T04:47:52.270Z,29.4
2023-04-21T04:53:45.986Z,28.7
2023-04-21T04:59:36.726Z,28.1
2023-04-21T05:05:15.595Z,27.4
2023-04-21T05:11:06.321Z,26.9
2023-04-21T05:16:58.622Z,31.3
2023-04-21T05:22:53.349Z,31.6
2023-04-21T05:28:47.779Z,30.4
2023-04-21T05:34:39.750Z,29.7
2023-04-21T05:40:34.947Z,29.1
2023-04-21T05:46:27.005Z,28.4
2023-04-21T05:57:09.888Z,27.3
2023-04-21T06:03:02.777Z,29.1
2023-04-21T06:08:26.549Z,32.6
2023-04-21T06:14:18.037Z,30.8
2023-04-21T06:20:09.844Z,29.9
2023-04-21T06:25:45.646Z,29.3
2023-04-21T06:31:25.440Z,28.8
2023-04-21T06:37:02.070Z,28.2
2023-04-21T06:42:53.772Z,27.6
2023-04-21T06:48:30.724Z,26.3
2023-04-21T06:54:06.254Z,32.8
2023-04-21T07:00:00.554Z,31.3
2023-04-21T07:05:54.297Z,30.4
2023-04-21T07:11:46.226Z,29.8
2023-04-21T07:17:37.465Z,29.2
2023-04-21T07:23:29.986Z,28.6
2023-04-21T07:29:05.867Z,27.9
2023-04-21T07:34:56.666Z,27.4
2023-04-21T07:40:49.317Z,31
2023-04-21T07:46:39.976Z,31.9
2023-04-21T07:52:31.375Z,30.6
2023-04-21T07:58:22.990Z,29.9
2023-04-21T08:04:00.828Z,29.4
2023-04-21T08:09:59.627Z,28.6
2023-04-21T08:15:36.682Z,28.1
2023-04-21T08:21:13.477Z,27.3
2023-04-21T08:26:53.294Z,33.3
2023-04-21T08:32:46.131Z,31.3
2023-04-21T08:39:16.679Z,30.4
2023-04-21T08:45:10.903Z,29.7
2023-04-21T08:51:06.375Z,29.1
2023-04-21T08:57:28.058Z,28.4
2023-04-21T09:02:57.255Z,27.6
2023-04-21T09:08:34.036Z,27.1
2023-04-21T09:14:27.523Z,33.4
2023-04-21T09:20:04.203Z,31.3
2023-04-21T09:25:56.416Z,30.4
2023-04-21T09:31:50.980Z,29.8
2023-04-21T09:38:03.895Z,29.1
2023-04-21T09:44:52.303Z,28.4
2023-04-21T09:57:30.054Z,33.3
2023-04-21T10:03:23.505Z,31.2
2023-04-21T10:09:17.862Z,30.3
2023-04-21T10:15:11.352Z,29.7
2023-04-21T10:21:03.735Z,29
2023-04-21T10:26:55.743Z,28.4
2023-04-21T10:32:59.797Z,27.8
2023-04-21T10:38:51.713Z,29.9
2023-04-21T10:44:47.890Z,32.6
2023-04-21T10:50:39.704Z,30.3
2023-04-21T10:56:32.217Z,29.4
2023-04-21T11:02:23.364Z,28.8
2023-04-21T11:08:19.975Z,28.3
2023-04-21T11:14:13.590Z,27.6
2023-04-21T11:20:05.288Z,27.1
2023-04-21T11:25:56.100Z,26.6
2023-04-21T11:31:33.033Z,26.1
2023-04-21T11:37:24.713Z,25.6
2023-04-21T11:43:16.120Z,25.2
2023-04-21T11:49:09.203Z,24.9
2023-04-21T11:54:44.962Z,24.6
2023-04-21T12:00:37.327Z,24.3
2023-04-21T12:06:16.814Z,24
2023-04-21T12:12:08.081Z,23.8
2023-04-21T12:18:01.636Z,23.6
2023-04-21T12:23:53.912Z,23.4
2023-04-21T12:29:45.679Z,23.3
2023-04-21T12:35:40.849Z,23.1
2023-04-21T12:41:33.421Z,22.9
2023-04-21T12:47:25.781Z,22.8
2023-04-21T12:53:03.982Z,22.8
2023-04-21T12:59:05.922Z,22.6
2023-04-21T13:05:02.227Z,22.6
2023-04-21T13:10:38.301Z,22.5
2023-04-21T13:16:30.972Z,22.4
2023-04-21T13:22:24.316Z,22.3
2023-04-21T13:28:15.639Z,22.3
2023-04-21T13:34:10.279Z,22.2
2023-04-21T13:39:49.310Z,22.1
2023-04-21T13:45:42.831Z,22.1
2023-04-21T13:51:36.184Z,22
2023-04-21T13:57:29.714Z,21.9
2023-04-21T14:02:51.537Z,21.9
2023-04-21T14:08:49.199Z,21.9
2023-04-21T14:15:11.605Z,21.8
2023-04-21T14:21:03.580Z,21.8
2023-04-21T14:26:55.642Z,21.8
2023-04-21T14:32:33.154Z,21.8
2023-04-21T14:38:11.793Z,21.7
2023-04-21T14:43:49.816Z,21.7
2023-04-21T14:49:39.781Z,21.6
2023-04-21T14:55:30.826Z,21.6
2023-04-21T15:01:25.924Z,21.6
2023-04-21T15:07:04.135Z,21.6
2023-04-21T15:12:44.281Z,21.6
2023-04-21T15:18:21.401Z,21.6
2023-04-21T15:24:22.663Z,21.5
2023-04-21T15:29:58.448Z,21.5
2023-04-21T15:35:35.430Z,21.5
2023-04-21T15:41:22.272Z,21.5
2023-04-21T15:47:01.100Z,21.4
2023-04-21T15:52:53.856Z,21.4
2023-04-21T15:58:46.235Z,21.4
2023-04-21T16:04:41.630Z,21.4
2023-04-21T16:10:20.910Z,21.4
2023-04-21T16:16:46.398Z,21.4
2023-04-21T16:22:40.325Z,21.4
2023-04-21T16:28:33.759Z,21.4
2023-04-21T16:34:26.555Z,21.4
2023-04-21T16:40:20.641Z,21.4
2023-04-21T16:46:13.408Z,21.4
2023-04-21T16:52:06.449Z,21.3
2023-04-21T16:57:57.299Z,21.3
2023-04-21T17:03:50.562Z,21.3
2023-04-21T17:09:43.211Z,21.3
2023-04-21T17:15:34.041Z,21.3
2023-04-21T17:21:28.080Z,21.3
2023-04-21T17:27:36.846Z,21.3
2023-04-21T17:33:57.421Z,21.3
2023-04-21T17:40:03.482Z,21.3
2023-04-21T17:45:54.998Z,21.3
2023-04-21T17:51:46.297Z,21.3
2023-04-21T17:57:23.426Z,21.2
2023-04-21T18:03:15.390Z,21.2
2023-04-21T18:08:53.159Z,21.2
2023-04-21T18:14:30.834Z,21.2
2023-04-21T18:20:07.637Z,21.2
2023-04-21T18:25:58.592Z,21.2
2023-04-21T19:10:20.665Z,21.1
2023-04-21T19:16:25.327Z,21.1
2023-04-21T19:22:17.611Z,21.1
2023-04-21T19:28:09.024Z,29.7
2023-04-21T19:34:00.880Z,33.5
2023-04-21T19:39:53.393Z,30.6
2023-04-21T19:45:45.225Z,29.6
2023-04-21T19:51:36.603Z,29
2023-04-21T19:57:46.411Z,29.2
2023-04-21T20:03:54.698Z,32.8
2023-04-21T20:09:46.873Z,30.3
2023-04-21T20:15:38.897Z,29.4
2023-04-21T20:21:31.042Z,28.9
2023-04-21T20:27:08.606Z,28.3
2023-04-21T20:33:00.759Z,30.9
2023-04-21T20:38:37.081Z,31.8
2023-04-21T20:44:25.698Z,30
2023-04-21T20:50:18.866Z,29.3
2023-04-21T20:56:09.853Z,28.7
2023-04-21T21:02:03.590Z,28.1
2023-04-21T21:07:57.348Z,28.8
2023-04-21T21:13:51.758Z,32.9
2023-04-21T21:19:27.647Z,30.2
2023-04-21T21:31:10.354Z,28.8
2023-04-21T21:37:02.332Z,28.3
2023-04-21T21:42:54.365Z,27.7
2023-04-21T21:48:50.700Z,30.8
2023-04-21T21:54:26.821Z,31.5
2023-04-21T22:00:18.846Z,29.9
2023-04-21T22:06:17.260Z,29.2
2023-04-21T22:12:09.287Z,28.6
2023-04-21T22:18:13.262Z,28
2023-04-21T22:24:04.464Z,27.4
2023-04-21T22:29:40.362Z,31.4
2023-04-21T22:35:32.581Z,31.1
2023-04-21T22:41:23.127Z,29.7
2023-04-21T22:47:14.600Z,29.1
2023-04-21T22:53:07.119Z,28.5
2023-04-21T22:58:59.133Z,27.9
2023-04-21T23:04:52.578Z,27.4
2023-04-21T23:10:29.663Z,31.1
2023-04-21T23:16:21.259Z,31.3
2023-04-21T23:22:13.380Z,29.8
2023-04-21T23:28:05.132Z,29.1
2023-04-21T23:33:57.210Z,28.6
2023-04-21T23:39:48.585Z,27.9
2023-04-21T23:45:40.819Z,27.4
2023-04-21T23:51:18.238Z,30.4
2023-04-21T23:57:10.554Z,31.7
